sensor_id;sensor_type;location;lat;lon;timestamp;pressure;altitude;pressure_sealevel;temperature;humidity
70206;BME280;57593;55.896;37.396;2023-02-13T00:00:27;99604.81;;;-5.16;100.00
70206;BME280;57593;55.896;37.396;2023-02-13T00:00:58;99603.94;;;-5.21;100.00
70206;BME280;57593;55.896;37.396;2023-02-13T00:01:29;99607.63;;;-5.17;100.00
70206;BME280;57593;55.896;37.396;2023-02-13T00:01:59;99605.31;;;-5.07;100.00
70206;BME280;57593;55.896;37.396;2023-02-13T00:02:30;99604.09;;;-5.04;100.00
70206;BME280;57593;55.896;37.396;2023-02-13T00:03:01;99601.72;;;-5.06;100.00
70206;BME280;57593;55.896;37.396;2023-02-13T00:03:32;99603.66;;;-5.01;100.00
70206;BME280;57593;55.896;37.396;2023-02-13T00:04:02;99609.25;;;-4.93;100.00
70206;BME280;57593;55.896;37.396;2023-02-13T00:04:34;99605.34;;;-4.95;100.00
70206;BME280;57593;55.896;37.396;2023-02-13T00:05:05;99601.38;;;-5.10;100.00
70206;BME280;57593;55.896;37.396;2023-02-13T00:05:36;99599.16;;;-4.94;100.00
70206;BME280;57593;55.896;37.396;2023-02-13T00:06:06;99603.00;;;-4.97;100.00
70206;BME280;57593;55.896;37.396;2023-02-13T00:06:37;99595.16;;;-4.90;100.00
70206;BME280;57593;55.896;37.396;2023-02-13T00:07:09;99595.03;;;-4.83;100.00
70206;BME280;57593;55.896;37.396;2023-02-13T00:07:41;99594.47;;;-4.74;100.00
70206;BME280;57593;55.896;37.396;2023-02-13T00:08:11;99594.25;;;-4.84;100.00
70206;BME280;57593;55.896;37.396;2023-02-13T00:08:42;99603.44;;;-4.88;100.00
70206;BME280;57593;55.896;37.396;2023-02-13T00:09:13;99590.47;;;-4.81;100.00
70206;BME280;57593;55.896;37.396;2023-02-13T00:09:44;99591.34;;;-4.88;100.00
70206;BME280;57593;55.896;37.396;2023-02-13T00:10:15;99598.19;;;-4.81;100.00
70206;BME280;57593;55.896;37.396;2023-02-13T00:10:46;99597.97;;;-4.80;100.00
70206;BME280;57593;55.896;37.396;2023-02-13T00:11:18;99601.78;;;-4.82;100.00
70206;BME280;57593;55.896;37.396;2023-02-13T00:11:49;99596.06;;;-4.84;100.00
70206;BME280;57593;55.896;37.396;2023-02-13T00:12:20;99595.59;;;-4.93;100.00
70206;BME280;57593;55.896;37.396;2023-02-13T00:12:51;99587.81;;;-5.05;100.00
70206;BME280;57593;55.896;37.396;2023-02-13T00:13:21;99581.78;;;-5.11;100.00
70206;BME280;57593;55.896;37.396;2023-02-13T00:13:52;99578.88;;;-5.02;100.00
70206;BME280;57593;55.896;37.396;2023-02-13T00:14:22;99584.59;;;-5.00;100.00
70206;BME280;57593;55.896;37.396;2023-02-13T00:14:53;99579.59;;;-4.95;100.00
70206;BME280;57593;55.896;37.396;2023-02-13T00:15:24;99575.75;;;-5.04;100.00
70206;BME280;57593;55.896;37.396;2023-02-13T00:15:59;99585.84;;;-5.03;100.00
70206;BME280;57593;55.896;37.396;2023-02-13T00:16:30;99578.88;;;-5.02;100.00
70206;BME280;57593;55.896;37.396;2023-02-13T00:17:01;99575.88;;;-4.99;100.00
70206;BME280;57593;55.896;37.396;2023-02-13T00:17:31;99573.19;;;-4.93;100.00
70206;BME280;57593;55.896;37.396;2023-02-13T00:18:02;99577.00;;;-4.95;100.00
70206;BME280;57593;55.896;37.396;2023-02-13T00:18:35;99577.34;;;-4.92;100.00
70206;BME280;57593;55.896;37.396;2023-02-13T00:19:06;99579.47;;;-4.89;100.00
70206;BME280;57593;55.896;37.396;2023-02-13T00:19:37;99565.59;;;-4.88;100.00
70206;BME280;57593;55.896;37.396;2023-02-13T00:20:09;99572.75;;;-4.78;100.00
70206;BME280;57593;55.896;37.396;2023-02-13T00:20:40;99573.53;;;-4.77;100.00
70206;BME280;57593;55.896;37.396;2023-02-13T00:21:12;99575.66;;;-4.86;100.00
70206;BME280;57593;55.896;37.396;2023-02-13T00:21:42;99576.34;;;-4.79;100.00
70206;BME280;57593;55.896;37.396;2023-02-13T00:22:13;99571.75;;;-4.77;100.00
70206;BME280;57593;55.896;37.396;2023-02-13T00:22:45;99571.19;;;-4.79;100.00
70206;BME280;57593;55.896;37.396;2023-02-13T00:23:16;99572.88;;;-4.73;100.00
70206;BME280;57593;55.896;37.396;2023-02-13T00:23:47;99564.34;;;-4.73;100.00
70206;BME280;57593;55.896;37.396;2023-02-13T00:24:17;99561.13;;;-4.68;100.00
70206;BME280;57593;55.896;37.396;2023-02-13T00:24:48;99558.19;;;-4.72;100.00
70206;BME280;57593;55.896;37.396;2023-02-13T00:25:19;99557.72;;;-4.69;100.00
70206;BME280;57593;55.896;37.396;2023-02-13T00:25:49;99559.78;;;-4.83;100.00
70206;BME280;57593;55.896;37.396;2023-02-13T00:26:20;99553.72;;;-4.77;100.00
70206;BME280;57593;55.896;37.396;2023-02-13T00:26:50;99562.66;;;-4.67;100.00
70206;BME280;57593;55.896;37.396;2023-02-13T00:27:21;99550.56;;;-4.79;100.00
70206;BME280;57593;55.896;37.396;2023-02-13T00:27:52;99546.09;;;-4.72;100.00
70206;BME280;57593;55.896;37.396;2023-02-13T00:28:24;99546.88;;;-4.71;100.00
70206;BME280;57593;55.896;37.396;2023-02-13T00:28:55;99548.22;;;-4.80;100.00
70206;BME280;57593;55.896;37.396;2023-02-13T00:29:28;99555.72;;;-4.79;100.00
70206;BME280;57593;55.896;37.396;2023-02-13T00:29:59;99551.69;;;-4.75;100.00
70206;BME280;57593;55.896;37.396;2023-02-13T00:30:29;99551.38;;;-4.78;100.00
70206;BME280;57593;55.896;37.396;2023-02-13T00:31:05;99546.66;;;-4.81;100.00
70206;BME280;57593;55.896;37.396;2023-02-13T00:31:36;99547.31;;;-4.74;100.00
70206;BME280;57593;55.896;37.396;2023-02-13T00:32:07;99543.75;;;-4.73;100.00
70206;BME280;57593;55.896;37.396;2023-02-13T00:32:37;99546.97;;;-4.66;100.00
70206;BME280;57593;55.896;37.396;2023-02-13T00:33:08;99545.44;;;-4.67;100.00
70206;BME280;57593;55.896;37.396;2023-02-13T00:33:39;99543.19;;;-4.75;100.00
70206;BME280;57593;55.896;37.396;2023-02-13T00:34:09;99553.50;;;-4.75;100.00
70206;BME280;57593;55.896;37.396;2023-02-13T00:34:40;99545.84;;;-4.82;100.00
70206;BME280;57593;55.896;37.396;2023-02-13T00:35:11;99544.75;;;-4.86;100.00
70206;BME280;57593;55.896;37.396;2023-02-13T00:35:41;99543.53;;;-4.72;100.00
70206;BME280;57593;55.896;37.396;2023-02-13T00:36:17;99547.53;;;-4.76;100.00
70206;BME280;57593;55.896;37.396;2023-02-13T00:36:48;99540.06;;;-4.89;100.00
70206;BME280;57593;55.896;37.396;2023-02-13T00:37:19;99539.16;;;-4.83;100.00
70206;BME280;57593;55.896;37.396;2023-02-13T00:37:49;99537.81;;;-4.85;100.00
70206;BME280;57593;55.896;37.396;2023-02-13T00:38:20;99536.56;;;-4.83;100.00
70206;BME280;57593;55.896;37.396;2023-02-13T00:38:52;99530.63;;;-4.95;100.00
70206;BME280;57593;55.896;37.396;2023-02-13T00:39:24;99540.50;;;-4.92;100.00
70206;BME280;57593;55.896;37.396;2023-02-13T00:39:54;99536.44;;;-5.00;100.00
70206;BME280;57593;55.896;37.396;2023-02-13T00:40:25;99537.00;;;-4.98;100.00
70206;BME280;57593;55.896;37.396;2023-02-13T00:40:56;99535.44;;;-4.87;100.00
70206;BME280;57593;55.896;37.396;2023-02-13T00:41:27;99537.47;;;-4.89;100.00
70206;BME280;57593;55.896;37.396;2023-02-13T00:41:57;99540.06;;;-4.89;100.00
70206;BME280;57593;55.896;37.396;2023-02-13T00:42:28;99526.72;;;-4.86;100.00
70206;BME280;57593;55.896;37.396;2023-02-13T00:42:58;99534.09;;;-4.90;100.00
70206;BME280;57593;55.896;37.396;2023-02-13T00:43:30;99532.31;;;-4.89;100.00
70206;BME280;57593;55.896;37.396;2023-02-13T00:44:01;99526.47;;;-4.96;100.00
70206;BME280;57593;55.896;37.396;2023-02-13T00:44:34;99530.84;;;-4.85;100.00
70206;BME280;57593;55.896;37.396;2023-02-13T00:45:06;99535.13;;;-4.91;100.00
70206;BME280;57593;55.896;37.396;2023-02-13T00:45:37;99533.75;;;-4.93;100.00
70206;BME280;57593;55.896;37.396;2023-02-13T00:46:07;99534.97;;;-4.96;100.00
70206;BME280;57593;55.896;37.396;2023-02-13T00:46:38;99529.75;;;-4.89;100.00
70206;BME280;57593;55.896;37.396;2023-02-13T00:47:09;99529.94;;;-4.79;100.00
70206;BME280;57593;55.896;37.396;2023-02-13T00:47:39;99531.97;;;-4.81;100.00
70206;BME280;57593;55.896;37.396;2023-02-13T00:48:10;99519.88;;;-4.80;100.00
70206;BME280;57593;55.896;37.396;2023-02-13T00:48:41;99522.13;;;-4.84;100.00
70206;BME280;57593;55.896;37.396;2023-02-13T00:49:11;99524.00;;;-4.67;100.00
70206;BME280;57593;55.896;37.396;2023-02-13T00:49:42;99525.03;;;-4.68;100.00
70206;BME280;57593;55.896;37.396;2023-02-13T00:50:12;99520.78;;;-4.75;100.00
70206;BME280;57593;55.896;37.396;2023-02-13T00:50:44;99515.06;;;-4.77;100.00
70206;BME280;57593;55.896;37.396;2023-02-13T00:51:15;99525.16;;;-4.75;100.00
70206;BME280;57593;55.896;37.396;2023-02-13T00:51:46;99519.41;;;-4.77;100.00
70206;BME280;57593;55.896;37.396;2023-02-13T00:52:17;99517.16;;;-4.74;100.00
70206;BME280;57593;55.896;37.396;2023-02-13T00:52:48;99524.69;;;-4.72;100.00
70206;BME280;57593;55.896;37.396;2023-02-13T00:53:20;99521.88;;;-4.71;100.00
70206;BME280;57593;55.896;37.396;2023-02-13T00:53:51;99524.91;;;-4.74;100.00
70206;BME280;57593;55.896;37.396;2023-02-13T00:54:21;99522.47;;;-4.68;100.00
70206;BME280;57593;55.896;37.396;2023-02-13T00:54:52;99527.94;;;-4.65;100.00
70206;BME280;57593;55.896;37.396;2023-02-13T00:55:23;99525.81;;;-4.68;100.00
70206;BME280;57593;55.896;37.396;2023-02-13T00:55:53;99524.22;;;-4.69;100.00
70206;BME280;57593;55.896;37.396;2023-02-13T00:56:24;99534.75;;;-4.71;100.00
70206;BME280;57593;55.896;37.396;2023-02-13T00:56:54;99531.63;;;-4.61;100.00
70206;BME280;57593;55.896;37.396;2023-02-13T00:57:25;99530.50;;;-4.65;100.00
70206;BME280;57593;55.896;37.396;2023-02-13T00:57:55;99532.88;;;-4.75;100.00
70206;BME280;57593;55.896;37.396;2023-02-13T00:58:26;99520.09;;;-4.82;100.00
70206;BME280;57593;55.896;37.396;2023-02-13T00:58:57;99520.78;;;-4.98;100.00
70206;BME280;57593;55.896;37.396;2023-02-13T00:59:29;99526.81;;;-5.04;100.00
70206;BME280;57593;55.896;37.396;2023-02-13T00:59:59;99527.25;;;-5.08;100.00
70206;BME280;57593;55.896;37.396;2023-02-13T01:00:30;99528.03;;;-5.07;100.00
70206;BME280;57593;55.896;37.396;2023-02-13T01:01:00;99525.13;;;-5.11;100.00
70206;BME280;57593;55.896;37.396;2023-02-13T01:01:31;99533.97;;;-5.18;100.00
70206;BME280;57593;55.896;37.396;2023-02-13T01:02:03;99526.69;;;-5.21;100.00
70206;BME280;57593;55.896;37.396;2023-02-13T01:02:35;99533.72;;;-5.29;100.00
70206;BME280;57593;55.896;37.396;2023-02-13T01:03:05;99531.47;;;-5.37;100.00
70206;BME280;57593;55.896;37.396;2023-02-13T01:03:36;99521.84;;;-5.30;100.00
70206;BME280;57593;55.896;37.396;2023-02-13T01:04:07;99522.84;;;-5.19;100.00
70206;BME280;57593;55.896;37.396;2023-02-13T01:04:38;99524.66;;;-5.19;100.00
70206;BME280;57593;55.896;37.396;2023-02-13T01:05:09;99525.69;;;-5.09;100.00
70206;BME280;57593;55.896;37.396;2023-02-13T01:05:39;99519.66;;;-5.02;100.00
70206;BME280;57593;55.896;37.396;2023-02-13T01:06:10;99517.50;;;-5.06;100.00
70206;BME280;57593;55.896;37.396;2023-02-13T01:06:40;99514.72;;;-4.92;100.00
70206;BME280;57593;55.896;37.396;2023-02-13T01:07:12;99513.16;;;-4.93;100.00
70206;BME280;57593;55.896;37.396;2023-02-13T01:07:42;99517.75;;;-4.95;100.00
70206;BME280;57593;55.896;37.396;2023-02-13T01:08:14;99526.59;;;-4.91;100.00
70206;BME280;57593;55.896;37.396;2023-02-13T01:08:45;99521.66;;;-4.93;100.00
70206;BME280;57593;55.896;37.396;2023-02-13T01:09:15;99521.78;;;-4.99;100.00
70206;BME280;57593;55.896;37.396;2023-02-13T01:09:46;99509.78;;;-5.06;100.00
70206;BME280;57593;55.896;37.396;2023-02-13T01:10:16;99522.00;;;-5.01;100.00
70206;BME280;57593;55.896;37.396;2023-02-13T01:10:47;99525.47;;;-4.83;100.00
70206;BME280;57593;55.896;37.396;2023-02-13T01:11:18;99506.66;;;-4.84;100.00
70206;BME280;57593;55.896;37.396;2023-02-13T01:11:49;99515.84;;;-4.88;100.00
70206;BME280;57593;55.896;37.396;2023-02-13T01:12:20;99508.91;;;-4.99;100.00
70206;BME280;57593;55.896;37.396;2023-02-13T01:12:50;99514.38;;;-4.96;100.00
70206;BME280;57593;55.896;37.396;2023-02-13T01:13:21;99508.25;;;-4.83;100.00
70206;BME280;57593;55.896;37.396;2023-02-13T01:13:52;99513.38;;;-4.83;100.00
70206;BME280;57593;55.896;37.396;2023-02-13T01:14:24;99513.25;;;-4.88;100.00
70206;BME280;57593;55.896;37.396;2023-02-13T01:14:54;99512.47;;;-5.00;100.00
70206;BME280;57593;55.896;37.396;2023-02-13T01:15:25;99509.81;;;-4.94;100.00
70206;BME280;57593;55.896;37.396;2023-02-13T01:15:56;99511.25;;;-4.98;100.00
70206;BME280;57593;55.896;37.396;2023-02-13T01:16:26;99514.59;;;-5.09;100.00
70206;BME280;57593;55.896;37.396;2023-02-13T01:16:57;99512.00;;;-5.21;100.00
70206;BME280;57593;55.896;37.396;2023-02-13T01:17:29;99505.63;;;-5.18;100.00
70206;BME280;57593;55.896;37.396;2023-02-13T01:18:00;99500.03;;;-5.15;100.00
70206;BME280;57593;55.896;37.396;2023-02-13T01:18:31;99506.06;;;-5.10;100.00
70206;BME280;57593;55.896;37.396;2023-02-13T01:19:03;99502.28;;;-5.07;100.00
70206;BME280;57593;55.896;37.396;2023-02-13T01:19:35;99508.66;;;-5.10;100.00
70206;BME280;57593;55.896;37.396;2023-02-13T01:20:07;99503.63;;;-5.16;100.00
70206;BME280;57593;55.896;37.396;2023-02-13T01:20:38;99504.59;;;-5.17;100.00
70206;BME280;57593;55.896;37.396;2023-02-13T01:21:16;99505.41;;;-5.17;100.00
70206;BME280;57593;55.896;37.396;2023-02-13T01:21:47;99500.25;;;-5.17;100.00
70206;BME280;57593;55.896;37.396;2023-02-13T01:22:17;99496.81;;;-5.11;100.00
70206;BME280;57593;55.896;37.396;2023-02-13T01:22:48;99498.47;;;-5.04;100.00
70206;BME280;57593;55.896;37.396;2023-02-13T01:23:20;99501.06;;;-5.04;100.00
70206;BME280;57593;55.896;37.396;2023-02-13T01:23:51;99499.72;;;-5.07;100.00
70206;BME280;57593;55.896;37.396;2023-02-13T01:24:23;99491.88;;;-5.12;100.00
70206;BME280;57593;55.896;37.396;2023-02-13T01:24:55;99486.06;;;-5.08;100.00
70206;BME280;57593;55.896;37.396;2023-02-13T01:25:26;99485.38;;;-5.15;100.00
70206;BME280;57593;55.896;37.396;2023-02-13T01:25:57;99484.16;;;-5.12;100.00
70206;BME280;57593;55.896;37.396;2023-02-13T01:26:28;99481.91;;;-5.09;100.00
70206;BME280;57593;55.896;37.396;2023-02-13T01:26:59;99487.50;;;-5.12;100.00
70206;BME280;57593;55.896;37.396;2023-02-13T01:27:32;99485.59;;;-5.04;100.00
70206;BME280;57593;55.896;37.396;2023-02-13T01:28:03;99484.81;;;-5.05;100.00
70206;BME280;57593;55.896;37.396;2023-02-13T01:28:34;99488.63;;;-4.96;100.00
70206;BME280;57593;55.896;37.396;2023-02-13T01:29:04;99484.13;;;-5.00;100.00
70206;BME280;57593;55.896;37.396;2023-02-13T01:29:36;99482.59;;;-5.01;100.00
70206;BME280;57593;55.896;37.396;2023-02-13T01:30:09;99482.13;;;-4.98;100.00
70206;BME280;57593;55.896;37.396;2023-02-13T01:30:42;99479.13;;;-4.95;100.00
70206;BME280;57593;55.896;37.396;2023-02-13T01:31:14;99485.81;;;-4.94;100.00
70206;BME280;57593;55.896;37.396;2023-02-13T01:31:45;99483.59;;;-4.91;100.00
70206;BME280;57593;55.896;37.396;2023-02-13T01:32:15;99482.78;;;-4.91;100.00
70206;BME280;57593;55.896;37.396;2023-02-13T01:32:46;99476.97;;;-4.87;100.00
70206;BME280;57593;55.896;37.396;2023-02-13T01:33:17;99475.75;;;-4.84;100.00
70206;BME280;57593;55.896;37.396;2023-02-13T01:33:49;99474.97;;;-4.84;100.00
70206;BME280;57593;55.896;37.396;2023-02-13T01:34:19;99478.75;;;-4.87;100.00
70206;BME280;57593;55.896;37.396;2023-02-13T01:34:50;99470.69;;;-4.79;100.00
70206;BME280;57593;55.896;37.396;2023-02-13T01:35:21;99479.75;;;-4.88;100.00
70206;BME280;57593;55.896;37.396;2023-02-13T01:35:52;99464.75;;;-4.91;100.00
70206;BME280;57593;55.896;37.396;2023-02-13T01:36:23;99466.78;;;-4.81;100.00
70206;BME280;57593;55.896;37.396;2023-02-13T01:36:54;99472.16;;;-4.83;100.00
70206;BME280;57593;55.896;37.396;2023-02-13T01:37:28;99466.34;;;-4.90;100.00
70206;BME280;57593;55.896;37.396;2023-02-13T01:37:58;99470.59;;;-4.84;100.00
70206;BME280;57593;55.896;37.396;2023-02-13T01:38:29;99463.09;;;-4.85;100.00
70206;BME280;57593;55.896;37.396;2023-02-13T01:39:00;99469.47;;;-4.88;100.00
70206;BME280;57593;55.896;37.396;2023-02-13T01:39:32;99464.66;;;-4.84;100.00
70206;BME280;57593;55.896;37.396;2023-02-13T01:40:02;99467.47;;;-4.86;100.00
70206;BME280;57593;55.896;37.396;2023-02-13T01:40:35;99464.22;;;-4.81;100.00
70206;BME280;57593;55.896;37.396;2023-02-13T01:41:07;99460.72;;;-4.75;100.00
70206;BME280;57593;55.896;37.396;2023-02-13T01:41:38;99454.13;;;-4.83;100.00
70206;BME280;57593;55.896;37.396;2023-02-13T01:42:30;99450.53;;;-4.70;100.00
70206;BME280;57593;55.896;37.396;2023-02-13T01:43:01;99450.75;;;-4.72;100.00
70206;BME280;57593;55.896;37.396;2023-02-13T01:44:48;99457.59;;;-4.89;100.00
70206;BME280;57593;55.896;37.396;2023-02-13T01:45:23;99456.16;;;-4.97;100.00
70206;BME280;57593;55.896;37.396;2023-02-13T01:45:56;99441.78;;;-4.93;100.00
70206;BME280;57593;55.896;37.396;2023-02-13T01:46:58;99440.03;;;-4.92;100.00
70206;BME280;57593;55.896;37.396;2023-02-13T01:47:42;99444.59;;;-4.94;100.00
70206;BME280;57593;55.896;37.396;2023-02-13T01:48:48;99452.22;;;-4.99;100.00
70206;BME280;57593;55.896;37.396;2023-02-13T01:49:22;99442.50;;;-5.09;100.00
70206;BME280;57593;55.896;37.396;2023-02-13T01:50:10;99451.88;;;-5.15;100.00
70206;BME280;57593;55.896;37.396;2023-02-13T01:50:47;99452.78;;;-5.21;100.00
70206;BME280;57593;55.896;37.396;2023-02-13T01:51:24;99449.66;;;-5.23;100.00
70206;BME280;57593;55.896;37.396;2023-02-13T01:51:57;99443.03;;;-5.43;100.00
70206;BME280;57593;55.896;37.396;2023-02-13T01:52:28;99441.91;;;-5.47;100.00
70206;BME280;57593;55.896;37.396;2023-02-13T01:53:24;99443.69;;;-5.47;100.00
70206;BME280;57593;55.896;37.396;2023-02-13T01:54:01;99434.75;;;-5.45;100.00
70206;BME280;57593;55.896;37.396;2023-02-13T01:54:33;99441.13;;;-5.47;100.00
70206;BME280;57593;55.896;37.396;2023-02-13T01:55:06;99440.78;;;-5.51;100.00
70206;BME280;57593;55.896;37.396;2023-02-13T01:55:44;99444.69;;;-5.60;100.00
70206;BME280;57593;55.896;37.396;2023-02-13T01:56:24;99435.09;;;-5.53;100.00
70206;BME280;57593;55.896;37.396;2023-02-13T01:57:22;99426.03;;;-5.44;100.00
70206;BME280;57593;55.896;37.396;2023-02-13T01:58:08;99435.88;;;-5.40;100.00
70206;BME280;57593;55.896;37.396;2023-02-13T01:58:43;99435.06;;;-5.41;100.00
70206;BME280;57593;55.896;37.396;2023-02-13T01:59:19;99432.06;;;-5.26;100.00
70206;BME280;57593;55.896;37.396;2023-02-13T01:59:55;99431.63;;;-5.23;100.00
70206;BME280;57593;55.896;37.396;2023-02-13T02:00:27;99424.56;;;-5.28;100.00
70206;BME280;57593;55.896;37.396;2023-02-13T02:00:58;99432.31;;;-5.28;100.00
70206;BME280;57593;55.896;37.396;2023-02-13T02:01:31;99441.81;;;-5.28;100.00
70206;BME280;57593;55.896;37.396;2023-02-13T02:02:02;99436.97;;;-5.36;100.00
70206;BME280;57593;55.896;37.396;2023-02-13T02:02:36;99429.34;;;-5.55;100.00
70206;BME280;57593;55.896;37.396;2023-02-13T02:03:13;99433.38;;;-5.47;100.00
70206;BME280;57593;55.896;37.396;2023-02-13T02:03:53;99429.81;;;-5.46;100.00
70206;BME280;57593;55.896;37.396;2023-02-13T02:04:29;99422.88;;;-5.46;100.00
70206;BME280;57593;55.896;37.396;2023-02-13T02:05:04;99421.53;;;-5.48;100.00
70206;BME280;57593;55.896;37.396;2023-02-13T02:05:35;99427.13;;;-5.39;100.00
70206;BME280;57593;55.896;37.396;2023-02-13T02:06:10;99426.25;;;-5.33;100.00
70206;BME280;57593;55.896;37.396;2023-02-13T02:06:48;99432.53;;;-5.29;100.00
70206;BME280;57593;55.896;37.396;2023-02-13T02:07:28;99420.31;;;-5.34;100.00
70206;BME280;57593;55.896;37.396;2023-02-13T02:08:07;99410.72;;;-5.27;100.00
70206;BME280;57593;55.896;37.396;2023-02-13T02:08:41;99412.25;;;-5.26;100.00
70206;BME280;57593;55.896;37.396;2023-02-13T02:09:16;99423.31;;;-5.25;100.00
70206;BME280;57593;55.896;37.396;2023-02-13T02:09:48;99418.53;;;-5.33;100.00
70206;BME280;57593;55.896;37.396;2023-02-13T02:10:21;99413.84;;;-5.25;100.00
70206;BME280;57593;55.896;37.396;2023-02-13T02:10:53;99412.25;;;-5.14;100.00
70206;BME280;57593;55.896;37.396;2023-02-13T02:12:31;99416.06;;;-5.16;100.00
70206;BME280;57593;55.896;37.396;2023-02-13T02:13:15;99413.38;;;-5.10;100.00
70206;BME280;57593;55.896;37.396;2023-02-13T02:13:48;99418.28;;;-5.08;100.00
70206;BME280;57593;55.896;37.396;2023-02-13T02:14:30;99421.00;;;-5.15;100.00
70206;BME280;57593;55.896;37.396;2023-02-13T02:15:02;99411.59;;;-5.33;100.00
70206;BME280;57593;55.896;37.396;2023-02-13T02:15:39;99415.94;;;-5.33;100.00
70206;BME280;57593;55.896;37.396;2023-02-13T02:16:11;99420.00;;;-5.37;100.00
70206;BME280;57593;55.896;37.396;2023-02-13T02:16:42;99415.59;;;-5.49;100.00
70206;BME280;57593;55.896;37.396;2023-02-13T02:17:13;99409.34;;;-5.53;100.00
70206;BME280;57593;55.896;37.396;2023-02-13T02:17:43;99406.97;;;-5.43;100.00
70206;BME280;57593;55.896;37.396;2023-02-13T02:18:19;99407.78;;;-5.30;100.00
70206;BME280;57593;55.896;37.396;2023-02-13T02:18:50;99409.91;;;-5.27;100.00
70206;BME280;57593;55.896;37.396;2023-02-13T02:20:50;99408.22;;;-5.33;100.00
70206;BME280;57593;55.896;37.396;2023-02-13T02:23:07;99415.94;;;-5.33;100.00
70206;BME280;57593;55.896;37.396;2023-02-13T02:26:37;99408.97;;;-5.56;100.00
70206;BME280;57593;55.896;37.396;2023-02-13T02:27:24;99399.63;;;-5.39;100.00
70206;BME280;57593;55.896;37.396;2023-02-13T02:31:47;99398.94;;;-5.34;100.00
70206;BME280;57593;55.896;37.396;2023-02-13T02:35:13;99404.19;;;-5.53;100.00
70206;BME280;57593;55.896;37.396;2023-02-13T02:37:06;99400.16;;;-5.49;100.00
70206;BME280;57593;55.896;37.396;2023-02-13T02:38:01;99397.56;;;-5.49;100.00
70206;BME280;57593;55.896;37.396;2023-02-13T02:38:41;99389.53;;;-5.52;100.00
70206;BME280;57593;55.896;37.396;2023-02-13T02:40:10;99392.31;;;-5.66;100.00
70206;BME280;57593;55.896;37.396;2023-02-13T02:42:40;99383.16;;;-5.62;100.00
70206;BME280;57593;55.896;37.396;2023-02-13T02:44:07;99384.13;;;-5.63;100.00
70206;BME280;57593;55.896;37.396;2023-02-13T02:45:42;99373.88;;;-5.51;100.00
70206;BME280;57593;55.896;37.396;2023-02-13T02:46:26;99382.28;;;-5.44;100.00
70206;BME280;57593;55.896;37.396;2023-02-13T02:49:16;99377.88;;;-5.55;100.00
70206;BME280;57593;55.896;37.396;2023-02-13T02:51:26;99375.22;;;-5.48;100.00
70206;BME280;57593;55.896;37.396;2023-02-13T02:52:14;99376.44;;;-5.51;100.00
70206;BME280;57593;55.896;37.396;2023-02-13T02:53:03;99368.50;;;-5.49;100.00
70206;BME280;57593;55.896;37.396;2023-02-13T02:54:36;99371.50;;;-5.29;100.00
70206;BME280;57593;55.896;37.396;2023-02-13T02:55:40;99352.34;;;-5.21;100.00
70206;BME280;57593;55.896;37.396;2023-02-13T02:56:20;99352.59;;;-5.22;100.00
70206;BME280;57593;55.896;37.396;2023-02-13T02:56:56;99348.56;;;-5.18;100.00
70206;BME280;57593;55.896;37.396;2023-02-13T02:57:32;99353.16;;;-5.32;100.00
70206;BME280;57593;55.896;37.396;2023-02-13T02:59:33;99347.47;;;-5.46;100.00
70206;BME280;57593;55.896;37.396;2023-02-13T03:00:25;99338.84;;;-5.52;100.00
70206;BME280;57593;55.896;37.396;2023-02-13T03:01:17;99341.06;;;-5.67;100.00
70206;BME280;57593;55.896;37.396;2023-02-13T03:02:09;99346.44;;;-5.69;100.00
70206;BME280;57593;55.896;37.396;2023-02-13T03:03:00;99348.47;;;-5.59;100.00
70206;BME280;57593;55.896;37.396;2023-02-13T03:03:49;99352.47;;;-5.75;100.00
70206;BME280;57593;55.896;37.396;2023-02-13T03:04:43;99342.63;;;-5.66;100.00
70206;BME280;57593;55.896;37.396;2023-02-13T03:05:36;99346.22;;;-5.67;100.00
70206;BME280;57593;55.896;37.396;2023-02-13T03:07:08;99353.84;;;-5.61;100.00
70206;BME280;57593;55.896;37.396;2023-02-13T03:07:39;99353.47;;;-5.64;100.00
70206;BME280;57593;55.896;37.396;2023-02-13T03:08:10;99348.25;;;-5.57;100.00
70206;BME280;57593;55.896;37.396;2023-02-13T03:08:50;99348.69;;;-5.49;100.00
70206;BME280;57593;55.896;37.396;2023-02-13T03:10:03;99348.22;;;-5.46;100.00
70206;BME280;57593;55.896;37.396;2023-02-13T03:10:52;99351.38;;;-5.44;100.00
70206;BME280;57593;55.896;37.396;2023-02-13T03:11:43;99349.03;;;-5.45;100.00
70206;BME280;57593;55.896;37.396;2023-02-13T03:12:53;99340.63;;;-5.40;100.00
70206;BME280;57593;55.896;37.396;2023-02-13T03:13:46;99340.50;;;-5.46;100.00
70206;BME280;57593;55.896;37.396;2023-02-13T03:14:19;99341.09;;;-5.44;100.00
70206;BME280;57593;55.896;37.396;2023-02-13T03:14:50;99334.59;;;-5.34;100.00
70206;BME280;57593;55.896;37.396;2023-02-13T03:15:22;99328.41;;;-5.33;100.00
70206;BME280;57593;55.896;37.396;2023-02-13T03:15:58;99334.69;;;-5.29;100.00
70206;BME280;57593;55.896;37.396;2023-02-13T03:16:48;99326.66;;;-5.33;100.00
70206;BME280;57593;55.896;37.396;2023-02-13T03:17:38;99336.16;;;-5.45;100.00
70206;BME280;57593;55.896;37.396;2023-02-13T03:18:29;99330.00;;;-5.32;100.00
70206;BME280;57593;55.896;37.396;2023-02-13T03:19:33;99326.41;;;-5.31;100.00
70206;BME280;57593;55.896;37.396;2023-02-13T03:20:45;99328.63;;;-5.23;100.00
70206;BME280;57593;55.896;37.396;2023-02-13T03:23:16;99312.53;;;-5.30;100.00
70206;BME280;57593;55.896;37.396;2023-02-13T03:23:58;99313.88;;;-5.28;100.00
70206;BME280;57593;55.896;37.396;2023-02-13T03:25:28;99316.16;;;-5.02;100.00
70206;BME280;57593;55.896;37.396;2023-02-13T03:29:04;99296.25;;;-5.07;100.00
70206;BME280;57593;55.896;37.396;2023-02-13T03:30:04;99287.50;;;-5.06;100.00
70206;BME280;57593;55.896;37.396;2023-02-13T03:30:57;99290.09;;;-5.06;100.00
70206;BME280;57593;55.896;37.396;2023-02-13T03:31:55;99280.34;;;-5.04;100.00
70206;BME280;57593;55.896;37.396;2023-02-13T03:33:55;99275.50;;;-5.00;100.00
70206;BME280;57593;55.896;37.396;2023-02-13T03:34:40;99273.50;;;-4.98;100.00